sensor_id;sensor_type;location;lat;lon;timestamp;P1;durP1;ratioP1;P2;durP2;ratioP2
25247;SDS011;13191;47.472;11.214;2022-09-17T00:00:56;1.92;;;0.90;;
25247;SDS011;13191;47.472;11.214;2022-09-17T00:03:23;2.22;;;0.95;;
25247;SDS011;13191;47.472;11.214;2022-09-17T00:05:49;1.50;;;0.80;;
25247;SDS011;13191;47.472;11.214;2022-09-17T00:08:22;1.23;;;0.73;;
25247;SDS011;13191;47.472;11.214;2022-09-17T00:10:47;0.95;;;0.63;;
25247;SDS011;13191;47.472;11.214;2022-09-17T00:13:13;3.45;;;1.10;;
25247;SDS011;13191;47.472;11.214;2022-09-17T00:15:39;2.90;;;1.10;;
25247;SDS011;13191;47.472;11.214;2022-09-17T00:18:06;2.53;;;0.80;;
25247;SDS011;13191;47.472;11.214;2022-09-17T00:20:31;2.67;;;0.90;;
25247;SDS011;13191;47.472;11.214;2022-09-17T00:23:01;1.73;;;1.00;;
25247;SDS011;13191;47.472;11.214;2022-09-17T00:25:26;1.60;;;0.80;;
25247;SDS011;13191;47.472;11.214;2022-09-17T00:27:52;1.83;;;1.05;;
25247;SDS011;13191;47.472;11.214;2022-09-17T00:30:17;2.58;;;0.77;;
25247;SDS011;13191;47.472;11.214;2022-09-17T00:32:43;3.20;;;0.93;;
25247;SDS011;13191;47.472;11.214;2022-09-17T00:35:08;6.95;;;1.00;;
25247;SDS011;13191;47.472;11.214;2022-09-17T00:37:34;3.72;;;1.17;;
25247;SDS011;13191;47.472;11.214;2022-09-17T00:39:59;1.95;;;0.70;;
25247;SDS011;13191;47.472;11.214;2022-09-17T00:42:25;2.95;;;1.35;;
25247;SDS011;13191;47.472;11.214;2022-09-17T00:44:54;1.63;;;0.90;;
25247;SDS011;13191;47.472;11.214;2022-09-17T00:49:50;1.33;;;0.75;;
25247;SDS011;13191;47.472;11.214;2022-09-17T00:52:55;1.88;;;0.80;;
25247;SDS011;13191;47.472;11.214;2022-09-17T00:57:47;4.75;;;1.08;;
25247;SDS011;13191;47.472;11.214;2022-09-17T01:00:16;1.65;;;0.90;;
25247;SDS011;13191;47.472;11.214;2022-09-17T01:02:42;2.03;;;0.80;;
25247;SDS011;13191;47.472;11.214;2022-09-17T01:05:09;1.02;;;0.70;;
25247;SDS011;13191;47.472;11.214;2022-09-17T01:26:05;2.85;;;1.00;;
25247;SDS011;13191;47.472;11.214;2022-09-17T01:31:16;1.38;;;0.80;;
25247;SDS011;13191;47.472;11.214;2022-09-17T01:33:54;3.90;;;1.00;;
25247;SDS011;13191;47.472;11.214;2022-09-17T01:36:44;4.03;;;0.98;;
25247;SDS011;13191;47.472;11.214;2022-09-17T01:42:23;2.50;;;1.02;;
25247;SDS011;13191;47.472;11.214;2022-09-17T01:44:52;2.55;;;1.10;;
25247;SDS011;13191;47.472;11.214;2022-09-17T01:47:28;1.70;;;0.88;;
25247;SDS011;13191;47.472;11.214;2022-09-17T01:50:00;1.23;;;0.80;;
25247;SDS011;13191;47.472;11.214;2022-09-17T01:52:48;1.33;;;0.80;;
25247;SDS011;13191;47.472;11.214;2022-09-17T01:55:17;1.80;;;0.85;;
25247;SDS011;13191;47.472;11.214;2022-09-17T01:57:49;1.83;;;1.05;;
25247;SDS011;13191;47.472;11.214;2022-09-17T02:00:31;1.58;;;1.02;;
25247;SDS011;13191;47.472;11.214;2022-09-17T02:03:12;1.25;;;0.70;;
25247;SDS011;13191;47.472;11.214;2022-09-17T02:05:51;2.70;;;0.88;;
25247;SDS011;13191;47.472;11.214;2022-09-17T02:08:22;1.05;;;0.75;;
25247;SDS011;13191;47.472;11.214;2022-09-17T02:10:58;1.50;;;0.77;;
25247;SDS011;13191;47.472;11.214;2022-09-17T02:13:43;5.93;;;1.30;;
25247;SDS011;13191;47.472;11.214;2022-09-17T02:16:26;1.13;;;0.65;;
25247;SDS011;13191;47.472;11.214;2022-09-17T02:29:36;1.70;;;0.77;;
25247;SDS011;13191;47.472;11.214;2022-09-17T02:32:05;2.33;;;0.90;;
25247;SDS011;13191;47.472;11.214;2022-09-17T02:34:31;1.20;;;0.77;;
25247;SDS011;13191;47.472;11.214;2022-09-17T02:36:57;6.25;;;1.05;;
25247;SDS011;13191;47.472;11.214;2022-09-17T02:39:23;9.50;;;1.10;;
25247;SDS011;13191;47.472;11.214;2022-09-17T02:42:04;1.17;;;0.70;;
25247;SDS011;13191;47.472;11.214;2022-09-17T02:44:58;1.38;;;0.75;;
25247;SDS011;13191;47.472;11.214;2022-09-17T02:47:58;1.50;;;0.80;;
25247;SDS011;13191;47.472;11.214;2022-09-17T02:50:51;3.97;;;0.50;;
25247;SDS011;13191;47.472;11.214;2022-09-17T02:56:18;1.55;;;0.80;;
25247;SDS011;13191;47.472;11.214;2022-09-17T03:01:37;1.13;;;0.68;;
25247;SDS011;13191;47.472;11.214;2022-09-17T03:04:07;1.33;;;0.70;;
25247;SDS011;13191;47.472;11.214;2022-09-17T03:06:36;1.67;;;0.60;;
25247;SDS011;13191;47.472;11.214;2022-09-17T03:09:02;1.10;;;0.60;;
25247;SDS011;13191;47.472;11.214;2022-09-17T03:11:28;1.58;;;0.63;;
25247;SDS011;13191;47.472;11.214;2022-09-17T03:13:53;9.65;;;1.00;;
25247;SDS011;13191;47.472;11.214;2022-09-17T03:16:19;3.80;;;0.80;;
25247;SDS011;13191;47.472;11.214;2022-09-17T03:18:44;1.83;;;0.68;;
25247;SDS011;13191;47.472;11.214;2022-09-17T03:21:10;1.08;;;0.50;;
25247;SDS011;13191;47.472;11.214;2022-09-17T03:23:36;1.23;;;0.55;;
25247;SDS011;13191;47.472;11.214;2022-09-17T03:26:03;0.70;;;0.50;;
25247;SDS011;13191;47.472;11.214;2022-09-17T03:28:28;1.38;;;0.60;;
25247;SDS011;13191;47.472;11.214;2022-09-17T03:30:54;3.15;;;0.70;;
25247;SDS011;13191;47.472;11.214;2022-09-17T03:33:20;0.90;;;0.60;;
25247;SDS011;13191;47.472;11.214;2022-09-17T03:35:46;1.70;;;1.02;;
25247;SDS011;13191;47.472;11.214;2022-09-17T03:38:12;1.27;;;0.80;;
25247;SDS011;13191;47.472;11.214;2022-09-17T03:40:38;0.77;;;0.52;;
25247;SDS011;13191;47.472;11.214;2022-09-17T03:43:04;2.03;;;0.60;;
25247;SDS011;13191;47.472;11.214;2022-09-17T03:45:31;1.08;;;0.40;;
25247;SDS011;13191;47.472;11.214;2022-09-17T03:47:56;1.10;;;0.60;;
25247;SDS011;13191;47.472;11.214;2022-09-17T03:50:22;1.02;;;0.50;;
25247;SDS011;13191;47.472;11.214;2022-09-17T03:52:48;0.35;;;0.30;;
25247;SDS011;13191;47.472;11.214;2022-09-17T03:55:13;1.45;;;0.50;;
25247;SDS011;13191;47.472;11.214;2022-09-17T03:57:41;1.55;;;0.50;;
25247;SDS011;13191;47.472;11.214;2022-09-17T04:00:06;2.10;;;0.38;;
25247;SDS011;13191;47.472;11.214;2022-09-17T04:02:33;1.08;;;0.40;;
25247;SDS011;13191;47.472;11.214;2022-09-17T04:04:58;0.95;;;0.45;;
25247;SDS011;13191;47.472;11.214;2022-09-17T04:07:24;1.20;;;0.50;;
25247;SDS011;13191;47.472;11.214;2022-09-17T04:09:49;4.18;;;0.50;;
25247;SDS011;13191;47.472;11.214;2022-09-17T04:12:15;0.77;;;0.50;;
25247;SDS011;13191;47.472;11.214;2022-09-17T04:14:41;1.67;;;0.60;;
25247;SDS011;13191;47.472;11.214;2022-09-17T04:17:06;1.27;;;0.65;;
25247;SDS011;13191;47.472;11.214;2022-09-17T04:19:32;0.63;;;0.47;;
25247;SDS011;13191;47.472;11.214;2022-09-17T04:21:57;1.00;;;0.50;;
25247;SDS011;13191;47.472;11.214;2022-09-17T04:24:24;1.17;;;0.50;;
25247;SDS011;13191;47.472;11.214;2022-09-17T04:26:49;0.68;;;0.50;;
25247;SDS011;13191;47.472;11.214;2022-09-17T04:29:15;1.02;;;0.57;;
25247;SDS011;13191;47.472;11.214;2022-09-17T04:31:40;0.75;;;0.50;;
25247;SDS011;13191;47.472;11.214;2022-09-17T04:34:06;3.40;;;0.50;;
25247;SDS011;13191;47.472;11.214;2022-09-17T04:36:32;1.00;;;0.40;;
25247;SDS011;13191;47.472;11.214;2022-09-17T04:38:57;0.50;;;0.30;;
25247;SDS011;13191;47.472;11.214;2022-09-17T04:41:23;0.57;;;0.30;;
25247;SDS011;13191;47.472;11.214;2022-09-17T04:43:48;0.95;;;0.50;;
25247;SDS011;13191;47.472;11.214;2022-09-17T04:46:14;0.32;;;0.30;;
25247;SDS011;13191;47.472;11.214;2022-09-17T04:48:40;0.65;;;0.30;;
25247;SDS011;13191;47.472;11.214;2022-09-17T04:51:06;1.92;;;0.40;;
25247;SDS011;13191;47.472;11.214;2022-09-17T04:53:31;0.80;;;0.40;;
25247;SDS011;13191;47.472;11.214;2022-09-17T04:55:57;0.55;;;0.40;;
25247;SDS011;13191;47.472;11.214;2022-09-17T04:58:23;0.45;;;0.30;;
25247;SDS011;13191;47.472;11.214;2022-09-17T05:00:48;1.20;;;0.50;;
25247;SDS011;13191;47.472;11.214;2022-09-17T05:03:14;3.67;;;0.43;;
25247;SDS011;13191;47.472;11.214;2022-09-17T05:05:40;0.40;;;0.30;;
25247;SDS011;13191;47.472;11.214;2022-09-17T05:08:05;0.60;;;0.40;;
25247;SDS011;13191;47.472;11.214;2022-09-17T05:10:32;0.82;;;0.40;;
25247;SDS011;13191;47.472;11.214;2022-09-17T05:12:58;0.40;;;0.40;;
25247;SDS011;13191;47.472;11.214;2022-09-17T05:15:24;0.43;;;0.30;;
25247;SDS011;13191;47.472;11.214;2022-09-17T05:17:50;0.35;;;0.32;;
25247;SDS011;13191;47.472;11.214;2022-09-17T05:20:15;1.20;;;0.43;;
25247;SDS011;13191;47.472;11.214;2022-09-17T05:22:46;0.88;;;0.43;;
25247;SDS011;13191;47.472;11.214;2022-09-17T05:25:13;0.67;;;0.40;;
25247;SDS011;13191;47.472;11.214;2022-09-17T05:27:40;0.20;;;0.20;;
25247;SDS011;13191;47.472;11.214;2022-09-17T05:30:07;1.08;;;0.28;;
25247;SDS011;13191;47.472;11.214;2022-09-17T05:32:34;0.63;;;0.40;;
25247;SDS011;13191;47.472;11.214;2022-09-17T05:35:00;0.22;;;0.22;;
25247;SDS011;13191;47.472;11.214;2022-09-17T05:37:26;1.33;;;0.40;;
25247;SDS011;13191;47.472;11.214;2022-09-17T05:39:52;0.88;;;0.30;;
25247;SDS011;13191;47.472;11.214;2022-09-17T05:42:17;0.35;;;0.30;;
25247;SDS011;13191;47.472;11.214;2022-09-17T05:44:43;0.20;;;0.20;;
25247;SDS011;13191;47.472;11.214;2022-09-17T05:47:08;0.30;;;0.20;;
25247;SDS011;13191;47.472;11.214;2022-09-17T05:49:34;1.50;;;0.40;;
25247;SDS011;13191;47.472;11.214;2022-09-17T05:51:59;0.20;;;0.20;;
25247;SDS011;13191;47.472;11.214;2022-09-17T05:54:25;1.40;;;0.20;;
25247;SDS011;13191;47.472;11.214;2022-09-17T05:56:51;1.90;;;0.35;;
25247;SDS011;13191;47.472;11.214;2022-09-17T05:59:17;0.38;;;0.30;;
25247;SDS011;13191;47.472;11.214;2022-09-17T06:01:43;0.28;;;0.20;;
25247;SDS011;13191;47.472;11.214;2022-09-17T06:04:09;0.35;;;0.32;;
25247;SDS011;13191;47.472;11.214;2022-09-17T06:06:35;0.20;;;0.20;;
25247;SDS011;13191;47.472;11.214;2022-09-17T06:09:01;0.65;;;0.22;;
25247;SDS011;13191;47.472;11.214;2022-09-17T06:11:27;0.20;;;0.20;;
25247;SDS011;13191;47.472;11.214;2022-09-17T06:13:53;0.20;;;0.20;;
25247;SDS011;13191;47.472;11.214;2022-09-17T06:16:20;0.20;;;0.13;;
25247;SDS011;13191;47.472;11.214;2022-09-17T06:18:46;0.20;;;0.20;;
25247;SDS011;13191;47.472;11.214;2022-09-17T06:21:14;0.20;;;0.20;;
25247;SDS011;13191;47.472;11.214;2022-09-17T06:23:41;0.20;;;0.20;;
25247;SDS011;13191;47.472;11.214;2022-09-17T06:26:07;0.20;;;0.20;;
25247;SDS011;13191;47.472;11.214;2022-09-17T06:28:33;3.83;;;0.30;;
25247;SDS011;13191;47.472;11.214;2022-09-17T06:31:00;1.17;;;0.20;;
25247;SDS011;13191;47.472;11.214;2022-09-17T06:33:27;0.10;;;0.10;;
25247;SDS011;13191;47.472;11.214;2022-09-17T06:36:00;0.10;;;0.10;;
25247;SDS011;13191;47.472;11.214;2022-09-17T06:38:29;0.20;;;0.20;;
25247;SDS011;13191;47.472;11.214;2022-09-17T06:40:56;0.90;;;0.30;;
25247;SDS011;13191;47.472;11.214;2022-09-17T06:43:22;0.20;;;0.20;;
25247;SDS011;13191;47.472;11.214;2022-09-17T06:45:55;0.20;;;0.20;;
25247;SDS011;13191;47.472;11.214;2022-09-17T06:48:22;0.35;;;0.20;;
25247;SDS011;13191;47.472;11.214;2022-09-17T06:50:49;0.10;;;0.10;;
25247;SDS011;13191;47.472;11.214;2022-09-17T06:53:15;0.20;;;0.20;;
25247;SDS011;13191;47.472;11.214;2022-09-17T06:55:41;0.10;;;0.10;;
25247;SDS011;13191;47.472;11.214;2022-09-17T06:58:07;0.10;;;0.10;;
25247;SDS011;13191;47.472;11.214;2022-09-17T07:00:33;0.47;;;0.20;;
25247;SDS011;13191;47.472;11.214;2022-09-17T07:03:00;0.20;;;0.20;;
25247;SDS011;13191;47.472;11.214;2022-09-17T07:05:26;0.20;;;0.20;;
25247;SDS011;13191;47.472;11.214;2022-09-17T07:07:53;0.20;;;0.20;;
25247;SDS011;13191;47.472;11.214;2022-09-17T07:10:19;0.10;;;0.10;;
25247;SDS011;13191;47.472;11.214;2022-09-17T07:12:47;0.10;;;0.10;;
25247;SDS011;13191;47.472;11.214;2022-09-17T07:15:12;0.10;;;0.10;;
25247;SDS011;13191;47.472;11.214;2022-09-17T07:17:39;0.20;;;0.20;;
25247;SDS011;13191;47.472;11.214;2022-09-17T07:20:07;0.10;;;0.10;;
25247;SDS011;13191;47.472;11.214;2022-09-17T07:22:33;0.20;;;0.20;;
25247;SDS011;13191;47.472;11.214;2022-09-17T07:25:00;0.20;;;0.20;;
25247;SDS011;13191;47.472;11.214;2022-09-17T07:27:26;0.20;;;0.20;;
25247;SDS011;13191;47.472;11.214;2022-09-17T07:29:53;0.20;;;0.20;;
25247;SDS011;13191;47.472;11.214;2022-09-17T07:32:19;0.20;;;0.20;;
25247;SDS011;13191;47.472;11.214;2022-09-17T07:34:45;0.10;;;0.10;;
25247;SDS011;13191;47.472;11.214;2022-09-17T07:37:10;0.10;;;0.10;;
25247;SDS011;13191;47.472;11.214;2022-09-17T07:39:36;0.50;;;0.20;;
25247;SDS011;13191;47.472;11.214;2022-09-17T07:42:02;0.20;;;0.20;;
25247;SDS011;13191;47.472;11.214;2022-09-17T07:44:28;0.30;;;0.20;;
25247;SDS011;13191;47.472;11.214;2022-09-17T07:46:54;0.20;;;0.20;;
25247;SDS011;13191;47.472;11.214;2022-09-17T07:49:20;0.10;;;0.10;;
25247;SDS011;13191;47.472;11.214;2022-09-17T07:51:45;0.25;;;0.25;;
25247;SDS011;13191;47.472;11.214;2022-09-17T07:54:11;0.20;;;0.20;;
25247;SDS011;13191;47.472;11.214;2022-09-17T07:56:36;0.15;;;0.13;;
25247;SDS011;13191;47.472;11.214;2022-09-17T07:59:02;0.73;;;0.32;;
25247;SDS011;13191;47.472;11.214;2022-09-17T08:01:28;0.20;;;0.20;;
25247;SDS011;13191;47.472;11.214;2022-09-17T08:03:57;0.40;;;0.20;;
25247;SDS011;13191;47.472;11.214;2022-09-17T08:06:24;0.20;;;0.20;;
25247;SDS011;13191;47.472;11.214;2022-09-17T08:08:51;0.20;;;0.20;;
25247;SDS011;13191;47.472;11.214;2022-09-17T08:11:18;0.17;;;0.17;;
25247;SDS011;13191;47.472;11.214;2022-09-17T08:13:48;0.17;;;0.17;;
25247;SDS011;13191;47.472;11.214;2022-09-17T08:16:15;0.20;;;0.20;;
25247;SDS011;13191;47.472;11.214;2022-09-17T08:18:42;0.10;;;0.10;;
25247;SDS011;13191;47.472;11.214;2022-09-17T08:21:10;0.30;;;0.20;;
25247;SDS011;13191;47.472;11.214;2022-09-17T08:23:38;0.20;;;0.20;;
25247;SDS011;13191;47.472;11.214;2022-09-17T08:26:05;0.20;;;0.20;;
25247;SDS011;13191;47.472;11.214;2022-09-17T08:28:33;0.20;;;0.20;;
25247;SDS011;13191;47.472;11.214;2022-09-17T08:31:00;0.30;;;0.30;;
25247;SDS011;13191;47.472;11.214;2022-09-17T08:33:29;0.15;;;0.15;;
25247;SDS011;13191;47.472;11.214;2022-09-17T08:35:59;1.20;;;0.30;;
25247;SDS011;13191;47.472;11.214;2022-09-17T08:38:25;0.10;;;0.10;;
25247;SDS011;13191;47.472;11.214;2022-09-17T08:46:35;0.10;;;0.10;;
25247;SDS011;13191;47.472;11.214;2022-09-17T08:49:05;0.10;;;0.10;;
25247;SDS011;13191;47.472;11.214;2022-09-17T08:51:46;0.30;;;0.30;;
25247;SDS011;13191;47.472;11.214;2022-09-17T08:54:40;0.52;;;0.30;;
25247;SDS011;13191;47.472;11.214;2022-09-17T08:57:30;0.13;;;0.13;;
25247;SDS011;13191;47.472;11.214;2022-09-17T09:00:25;0.10;;;0.10;;
25247;SDS011;13191;47.472;11.214;2022-09-17T09:05:49;0.20;;;0.20;;
25247;SDS011;13191;47.472;11.214;2022-09-17T09:08:37;0.80;;;0.30;;
25247;SDS011;13191;47.472;11.214;2022-09-17T09:11:21;0.22;;;0.20;;
25247;SDS011;13191;47.472;11.214;2022-09-17T09:16:25;0.55;;;0.30;;
25247;SDS011;13191;47.472;11.214;2022-09-17T09:18:55;0.30;;;0.20;;
25247;SDS011;13191;47.472;11.214;2022-09-17T09:21:29;0.40;;;0.30;;
25247;SDS011;13191;47.472;11.214;2022-09-17T09:24:19;6.82;;;0.30;;
25247;SDS011;13191;47.472;11.214;2022-09-17T09:32:28;0.32;;;0.10;;
25247;SDS011;13191;47.472;11.214;2022-09-17T09:35:28;0.15;;;0.15;;
25247;SDS011;13191;47.472;11.214;2022-09-17T09:37:58;0.40;;;0.20;;
25247;SDS011;13191;47.472;11.214;2022-09-17T09:43:18;0.10;;;0.10;;
25247;SDS011;13191;47.472;11.214;2022-09-17T09:46:04;0.15;;;0.15;;
25247;SDS011;13191;47.472;11.214;2022-09-17T09:54:18;0.20;;;0.20;;
25247;SDS011;13191;47.472;11.214;2022-09-17T09:57:02;0.20;;;0.20;;
25247;SDS011;13191;47.472;11.214;2022-09-17T09:59:31;0.20;;;0.20;;
25247;SDS011;13191;47.472;11.214;2022-09-17T10:01:57;0.55;;;0.25;;
25247;SDS011;13191;47.472;11.214;2022-09-17T10:04:24;0.20;;;0.20;;
25247;SDS011;13191;47.472;11.214;2022-09-17T10:06:52;1.75;;;0.30;;
25247;SDS011;13191;47.472;11.214;2022-09-17T10:09:23;0.65;;;0.35;;
25247;SDS011;13191;47.472;11.214;2022-09-17T10:12:32;0.40;;;0.28;;
25247;SDS011;13191;47.472;11.214;2022-09-17T10:14:42;2.05;;;0.20;;
25247;SDS011;13191;47.472;11.214;2022-09-17T10:17:17;0.40;;;0.32;;
25247;SDS011;13191;47.472;11.214;2022-09-17T10:19:45;0.20;;;0.20;;
25247;SDS011;13191;47.472;11.214;2022-09-17T10:22:37;1.52;;;0.20;;
25247;SDS011;13191;47.472;11.214;2022-09-17T10:25:05;0.47;;;0.20;;
25247;SDS011;13191;47.472;11.214;2022-09-17T10:27:42;3.05;;;0.40;;
25247;SDS011;13191;47.472;11.214;2022-09-17T10:32:35;0.25;;;0.20;;
25247;SDS011;13191;47.472;11.214;2022-09-17T10:35:05;0.40;;;0.30;;
25247;SDS011;13191;47.472;11.214;2022-09-17T10:37:50;0.50;;;0.20;;
25247;SDS011;13191;47.472;11.214;2022-09-17T10:42:49;0.30;;;0.20;;
25247;SDS011;13191;47.472;11.214;2022-09-17T10:45:35;0.30;;;0.28;;
25247;SDS011;13191;47.472;11.214;2022-09-17T10:48:11;0.73;;;0.32;;
25247;SDS011;13191;47.472;11.214;2022-09-17T10:50:40;2.10;;;0.30;;
25247;SDS011;13191;47.472;11.214;2022-09-17T10:53:16;0.38;;;0.30;;
25247;SDS011;13191;47.472;11.214;2022-09-17T11:01:42;3.92;;;1.23;;
25247;SDS011;13191;47.472;11.214;2022-09-17T11:04:38;1.02;;;0.57;;
25247;SDS011;13191;47.472;11.214;2022-09-17T11:07:27;0.63;;;0.38;;
25247;SDS011;13191;47.472;11.214;2022-09-17T11:10:16;0.85;;;0.32;;
25247;SDS011;13191;47.472;11.214;2022-09-17T11:30:01;0.88;;;0.40;;
25247;SDS011;13191;47.472;11.214;2022-09-17T11:35:13;0.57;;;0.45;;
25247;SDS011;13191;47.472;11.214;2022-09-17T11:37:57;3.03;;;0.70;;
25247;SDS011;13191;47.472;11.214;2022-09-17T11:43:27;0.65;;;0.35;;
25247;SDS011;13191;47.472;11.214;2022-09-17T11:48:37;0.20;;;0.20;;
25247;SDS011;13191;47.472;11.214;2022-09-17T11:53:43;3.80;;;0.73;;
25247;SDS011;13191;47.472;11.214;2022-09-17T11:58:48;0.73;;;0.35;;
25247;SDS011;13191;47.472;11.214;2022-09-17T12:01:44;0.75;;;0.35;;
25247;SDS011;13191;47.472;11.214;2022-09-17T12:12:41;0.98;;;0.45;;
25247;SDS011;13191;47.472;11.214;2022-09-17T12:15:23;0.35;;;0.35;;
25247;SDS011;13191;47.472;11.214;2022-09-17T12:17:55;0.75;;;0.47;;
25247;SDS011;13191;47.472;11.214;2022-09-17T12:20:35;0.43;;;0.30;;
25247;SDS011;13191;47.472;11.214;2022-09-17T12:23:05;0.77;;;0.40;;
25247;SDS011;13191;47.472;11.214;2022-09-17T12:25:39;0.35;;;0.30;;
25247;SDS011;13191;47.472;11.214;2022-09-17T12:28:29;1.15;;;0.43;;
25247;SDS011;13191;47.472;11.214;2022-09-17T12:31:04;1.65;;;0.57;;
25247;SDS011;13191;47.472;11.214;2022-09-17T12:36:51;1.30;;;0.47;;
25247;SDS011;13191;47.472;11.214;2022-09-17T12:39:34;0.57;;;0.35;;
25247;SDS011;13191;47.472;11.214;2022-09-17T12:44:44;11.10;;;1.27;;
25247;SDS011;13191;47.472;11.214;2022-09-17T12:47:46;3.92;;;0.57;;
25247;SDS011;13191;47.472;11.214;2022-09-17T12:50:31;0.77;;;0.47;;
25247;SDS011;13191;47.472;11.214;2022-09-17T13:01:54;1.27;;;0.50;;
25247;SDS011;13191;47.472;11.214;2022-09-17T13:12:41;0.80;;;0.40;;
25247;SDS011;13191;47.472;11.214;2022-09-17T13:17:45;2.95;;;0.93;;
25247;SDS011;13191;47.472;11.214;2022-09-17T13:20:22;2.58;;;0.50;;
25247;SDS011;13191;47.472;11.214;2022-09-17T13:22:49;0.85;;;0.40;;
25247;SDS011;13191;47.472;11.214;2022-09-17T13:25:18;1.25;;;0.50;;
25247;SDS011;13191;47.472;11.214;2022-09-17T13:27:45;0.50;;;0.30;;
25247;SDS011;13191;47.472;11.214;2022-09-17T13:30:15;1.27;;;0.50;;
25247;SDS011;13191;47.472;11.214;2022-09-17T13:32:46;0.40;;;0.30;;
25247;SDS011;13191;47.472;11.214;2022-09-17T13:37:59;1.35;;;0.30;;
25247;SDS011;13191;47.472;11.214;2022-09-17T13:42:51;0.90;;;0.30;;
25247;SDS011;13191;47.472;11.214;2022-09-17T13:45:19;2.63;;;0.30;;
25247;SDS011;13191;47.472;11.214;2022-09-17T13:47:59;0.80;;;0.40;;
25247;SDS011;13191;47.472;11.214;2022-09-17T13:50:36;0.40;;;0.30;;
25247;SDS011;13191;47.472;11.214;2022-09-17T13:55:34;0.30;;;0.30;;
25247;SDS011;13191;47.472;11.214;2022-09-17T13:58:10;0.68;;;0.30;;
25247;SDS011;13191;47.472;11.214;2022-09-17T14:19:16;2.00;;;0.50;;
25247;SDS011;13191;47.472;11.214;2022-09-17T14:37:54;0.88;;;0.60;;
25247;SDS011;13191;47.472;11.214;2022-09-17T14:40:26;0.35;;;0.30;;
25247;SDS011;13191;47.472;11.214;2022-09-17T14:42:53;3.40;;;1.00;;
25247;SDS011;13191;47.472;11.214;2022-09-17T14:45:28;0.40;;;0.32;;
25247;SDS011;13191;47.472;11.214;2022-09-17T14:50:41;2.88;;;0.50;;
25247;SDS011;13191;47.472;11.214;2022-09-17T14:53:07;2.20;;;0.50;;
25247;SDS011;13191;47.472;11.214;2022-09-17T14:55:39;0.47;;;0.30;;
25247;SDS011;13191;47.472;11.214;2022-09-17T14:58:18;1.38;;;0.30;;
25247;SDS011;13191;47.472;11.214;2022-09-17T15:00:53;0.30;;;0.30;;
25247;SDS011;13191;47.472;11.214;2022-09-17T15:03:20;0.30;;;0.28;;
25247;SDS011;13191;47.472;11.214;2022-09-17T15:05:47;0.20;;;0.20;;
25247;SDS011;13191;47.472;11.214;2022-09-17T15:08:16;1.15;;;0.20;;
25247;SDS011;13191;47.472;11.214;2022-09-17T15:11:06;0.20;;;0.20;;
25247;SDS011;13191;47.472;11.214;2022-09-17T15:13:36;0.80;;;0.40;;
25247;SDS011;13191;47.472;11.214;2022-09-17T15:16:16;1.00;;;0.50;;
25247;SDS011;13191;47.472;11.214;2022-09-17T15:18:55;1.05;;;0.35;;
25247;SDS011;13191;47.472;11.214;2022-09-17T15:23:58;1.13;;;0.40;;
25247;SDS011;13191;47.472;11.214;2022-09-17T15:26:38;0.55;;;0.40;;
25247;SDS011;13191;47.472;11.214;2022-09-17T15:29:12;1.45;;;0.50;;
25247;SDS011;13191;47.472;11.214;2022-09-17T15:31:38;0.50;;;0.40;;
25247;SDS011;13191;47.472;11.214;2022-09-17T15:34:04;1.10;;;0.50;;
25247;SDS011;13191;47.472;11.214;2022-09-17T15:36:29;0.90;;;0.63;;
25247;SDS011;13191;47.472;11.214;2022-09-17T15:38:55;0.30;;;0.20;;
25247;SDS011;13191;47.472;11.214;2022-09-17T15:41:27;0.45;;;0.30;;
25247;SDS011;13191;47.472;11.214;2022-09-17T15:43:53;5.72;;;0.47;;
25247;SDS011;13191;47.472;11.214;2022-09-17T15:46:30;0.30;;;0.30;;
25247;SDS011;13191;47.472;11.214;2022-09-17T15:49:00;0.30;;;0.30;;
25247;SDS011;13191;47.472;11.214;2022-09-17T15:51:27;0.45;;;0.30;;
25247;SDS011;13191;47.472;11.214;2022-09-17T15:53:59;0.73;;;0.40;;
25247;SDS011;13191;47.472;11.214;2022-09-17T15:56:33;0.47;;;0.32;;
25247;SDS011;13191;47.472;11.214;2022-09-17T15:59:02;1.55;;;0.50;;
25247;SDS011;13191;47.472;11.214;2022-09-17T16:04:05;0.43;;;0.40;;
25247;SDS011;13191;47.472;11.214;2022-09-17T16:09:35;0.73;;;0.43;;
25247;SDS011;13191;47.472;11.214;2022-09-17T16:12:02;0.20;;;0.20;;
25247;SDS011;13191;47.472;11.214;2022-09-17T16:14:28;0.65;;;0.32;;
25247;SDS011;13191;47.472;11.214;2022-09-17T16:16:53;0.73;;;0.20;;
25247;SDS011;13191;47.472;11.214;2022-09-17T16:19:20;0.98;;;0.20;;
25247;SDS011;13191;47.472;11.214;2022-09-17T16:21:46;0.40;;;0.20;;
25247;SDS011;13191;47.472;11.214;2022-09-17T16:24:12;0.30;;;0.30;;
25247;SDS011;13191;47.472;11.214;2022-09-17T16:26:37;0.20;;;0.20;;
25247;SDS011;13191;47.472;11.214;2022-09-17T16:29:05;1.50;;;0.20;;
25247;SDS011;13191;47.472;11.214;2022-09-17T16:31:35;0.43;;;0.30;;
25247;SDS011;13191;47.472;11.214;2022-09-17T16:34:00;0.20;;;0.20;;
25247;SDS011;13191;47.472;11.214;2022-09-17T16:36:26;0.63;;;0.30;;
25247;SDS011;13191;47.472;11.214;2022-09-17T16:38:54;0.30;;;0.30;;
25247;SDS011;13191;47.472;11.214;2022-09-17T16:41:20;4.50;;;0.50;;
25247;SDS011;13191;47.472;11.214;2022-09-17T16:43:46;0.35;;;0.28;;
25247;SDS011;13191;47.472;11.214;2022-09-17T16:46:12;1.10;;;0.30;;
25247;SDS011;13191;47.472;11.214;2022-09-17T16:48:38;0.30;;;0.30;;
25247;SDS011;13191;47.472;11.214;2022-09-17T16:51:09;0.40;;;0.28;;
25247;SDS011;13191;47.472;11.214;2022-09-17T16:53:36;0.80;;;0.30;;
25247;SDS011;13191;47.472;11.214;2022-09-17T16:56:05;0.20;;;0.20;;
25247;SDS011;13191;47.472;11.214;2022-09-17T16:58:35;0.57;;;0.35;;
25247;SDS011;13191;47.472;11.214;2022-09-17T17:01:05;0.20;;;0.20;;
25247;SDS011;13191;47.472;11.214;2022-09-17T17:03:32;2.38;;;0.20;;
25247;SDS011;13191;47.472;11.214;2022-09-17T17:05:57;0.57;;;0.45;;
25247;SDS011;13191;47.472;11.214;2022-09-17T17:08:23;0.20;;;0.15;;
25247;SDS011;13191;47.472;11.214;2022-09-17T17:10:48;0.22;;;0.22;;
25247;SDS011;13191;47.472;11.214;2022-09-17T17:13:14;0.20;;;0.20;;
25247;SDS011;13191;47.472;11.214;2022-09-17T17:15:40;0.75;;;0.40;;
25247;SDS011;13191;47.472;11.214;2022-09-17T17:18:05;0.40;;;0.25;;
25247;SDS011;13191;47.472;11.214;2022-09-17T17:20:33;0.63;;;0.30;;
25247;SDS011;13191;47.472;11.214;2022-09-17T17:23:00;0.40;;;0.30;;
25247;SDS011;13191;47.472;11.214;2022-09-17T17:25:25;0.68;;;0.30;;
25247;SDS011;13191;47.472;11.214;2022-09-17T17:27:52;0.43;;;0.30;;
25247;SDS011;13191;47.472;11.214;2022-09-17T17:30:17;3.50;;;1.98;;
25247;SDS011;13191;47.472;11.214;2022-09-17T17:32:43;4.63;;;2.72;;
25247;SDS011;13191;47.472;11.214;2022-09-17T17:35:13;4.90;;;2.00;;
25247;SDS011;13191;47.472;11.214;2022-09-17T17:37:38;4.43;;;1.90;;
25247;SDS011;13191;47.472;11.214;2022-09-17T17:40:04;2.13;;;1.30;;
25247;SDS011;13191;47.472;11.214;2022-09-17T17:42:32;0.82;;;0.50;;
25247;SDS011;13191;47.472;11.214;2022-09-17T17:45:02;1.13;;;0.70;;
25247;SDS011;13191;47.472;11.214;2022-09-17T17:47:28;0.50;;;0.30;;
25247;SDS011;13191;47.472;11.214;2022-09-17T17:49:54;0.90;;;0.50;;
25247;SDS011;13191;47.472;11.214;2022-09-17T17:52:19;1.23;;;0.50;;
25247;SDS011;13191;47.472;11.214;2022-09-17T17:54:45;0.50;;;0.30;;
25247;SDS011;13191;47.472;11.214;2022-09-17T17:57:10;0.30;;;0.30;;
25247;SDS011;13191;47.472;11.214;2022-09-17T17:59:36;3.20;;;0.30;;
25247;SDS011;13191;47.472;11.214;2022-09-17T18:02:02;1.30;;;0.45;;
25247;SDS011;13191;47.472;11.214;2022-09-17T18:04:27;0.98;;;0.30;;
25247;SDS011;13191;47.472;11.214;2022-09-17T18:06:53;0.20;;;0.20;;
25247;SDS011;13191;47.472;11.214;2022-09-17T18:09:19;0.20;;;0.20;;